Time;durP1;ratioP1;P1;durP2;ratioP2;P2;SDS_P1;SDS_P2;PMS_P1;PMS_P2;Temp;Humidity;BMP_temperature;BMP_pressure;BME280_temperature;BME280_humidity;BME280_pressure;Samples;Min_cycle;Max_cycle;Signal;HPM_P1;HPM_P2
2022/06/20 00:00:40;;;;;;;15.40;6.38;;;23.20;64.70;;;;;;4995076;28;20050;-55
2022/06/20 00:03:23;;;;;;;11.25;6.35;;;23.20;62.50;;;;;;5011928;28;20860;-54
2022/06/20 00:05:51;;;;;;;14.98;6.22;;;23.20;63.10;;;;;;5018893;28;20060;-54
2022/06/20 00:08:18;;;;;;;15.10;6.20;;;23.20;63.00;;;;;;5018213;28;20037;-53
2022/06/20 00:10:46;;;;;;;18.67;6.60;;;23.20;63.10;;;;;;5018266;28;20041;-55
2022/06/20 00:13:33;;;;;;;22.00;8.95;;;23.10;62.90;;;;;;5018254;28;20048;-53
2022/06/20 00:16:02;;;;;;;16.70;6.97;;;23.10;63.50;;;;;;5017888;28;20045;-54
2022/06/20 00:18:30;;;;;;;20.70;7.60;;;23.00;63.90;;;;;;5018379;28;20125;-54
2022/06/20 00:20:58;;;;;;;29.50;7.60;;;22.90;63.80;;;;;;5016573;28;20041;-54
2022/06/20 00:23:24;;;;;;;13.60;6.25;;;22.80;63.90;;;;;;5018120;28;20060;-53
2022/06/20 00:25:51;;;;;;;13.80;6.30;;;22.90;64.00;;;;;;5018095;28;20292;-54
2022/06/20 00:28:19;;;;;;;18.33;6.45;;;22.80;64.20;;;;;;5017933;28;20797;-53
2022/06/20 00:30:46;;;;;;;11.63;6.82;;;22.70;64.10;;;;;;5017883;28;20052;-54
2022/06/20 00:33:13;;;;;;;22.50;6.45;;;22.70;65.10;;;;;;5016887;28;20077;-51
2022/06/20 00:35:40;;;;;;;15.18;6.95;;;22.70;65.80;;;;;;5016831;28;20037;-53
2022/06/20 00:38:18;;;;;;;20.25;7.45;;;22.60;65.90;;;;;;5017681;28;20917;-51
2022/06/20 00:40:49;;;;;;;22.13;6.95;;;22.60;63.90;;;;;;5017014;28;20830;-57
2022/06/20 00:43:42;;;;;;;14.50;6.88;;;22.60;65.30;;;;;;4997290;28;20129;-54
2022/06/20 00:46:18;;;;;;;16.35;7.47;;;22.60;65.50;;;;;;4998268;28;20125;-53
2022/06/20 00:48:54;;;;;;;15.43;6.28;;;22.60;65.00;;;;;;5016855;28;20072;-54
2022/06/20 00:51:28;;;;;;;16.00;7.03;;;22.60;65.70;;;;;;5017749;28;20119;-54
2022/06/20 00:54:06;;;;;;;18.00;7.50;;;22.50;65.00;;;;;;5016179;28;20049;-54
2022/06/20 00:56:57;;;;;;;23.27;7.47;;;22.50;65.20;;;;;;5018027;28;20037;-53
2022/06/20 00:59:34;;;;;;;14.05;6.25;;;22.50;66.60;;;;;;5017104;28;20045;-56
2022/06/20 01:02:06;;;;;;;13.73;7.15;;;22.40;66.00;;;;;;5017529;28;20045;-54
2022/06/20 01:04:45;;;;;;;20.10;6.55;;;22.40;66.60;;;;;;5012610;28;20127;-54
2022/06/20 01:07:21;;;;;;;17.63;6.38;;;22.40;66.70;;;;;;5017064;28;20050;-53
2022/06/20 01:09:53;;;;;;;17.25;6.82;;;22.40;67.50;;;;;;5016898;28;20044;-51
2022/06/20 01:12:22;;;;;;;18.33;6.30;;;22.30;67.50;;;;;;5017082;28;20710;-54
2022/06/20 01:14:48;;;;;;;21.55;8.02;;;22.30;67.70;;;;;;5016778;28;20061;-53
2022/06/20 01:17:32;;;;;;;13.90;6.40;;;22.30;69.40;;;;;;5017650;28;20041;-53
2022/06/20 01:20:01;;;;;;;15.55;6.80;;;22.20;69.10;;;;;;5016525;28;20092;-53
2022/06/20 01:22:57;;;;;;;13.52;6.90;;;22.20;69.60;;;;;;5015195;28;20458;-53
2022/06/20 01:25:48;;;;;;;8.85;6.05;;;22.10;70.30;;;;;;5016948;28;20080;-53
2022/06/20 01:28:19;;;;;;;11.75;6.38;;;22.10;70.80;;;;;;5017083;28;20049;-54
2022/06/20 01:30:47;;;;;;;12.27;7.93;;;22.00;71.90;;;;;;5017252;28;20041;-53
2022/06/20 01:33:18;;;;;;;24.08;6.43;;;22.00;73.50;;;;;;5016547;28;20069;-53
2022/06/20 01:38:32;;;;;;;17.27;7.68;;;21.80;74.50;;;;;;5016558;28;20044;-52
2022/06/20 01:43:47;;;;;;;10.93;5.90;;;21.70;73.90;;;;;;5016071;28;20507;-52
2022/06/20 01:46:15;;;;;;;10.98;5.28;;;21.70;73.30;;;;;;5016562;28;20055;-53
2022/06/20 01:48:51;;;;;;;17.25;6.78;;;21.70;72.60;;;;;;5015825;28;20049;-53
2022/06/20 01:51:30;;;;;;;10.47;6.27;;;21.60;73.60;;;;;;4996470;28;20054;-53
2022/06/20 01:53:58;;;;;;;12.40;5.90;;;21.60;74.20;;;;;;5011356;28;20519;-51
2022/06/20 01:56:27;;;;;;;14.57;7.05;;;21.60;74.40;;;;;;4996535;28;20054;-53
2022/06/20 01:59:01;;;;;;;9.75;5.63;;;21.50;74.80;;;;;;4996011;28;20185;-52
2022/06/20 02:01:30;;;;;;;8.40;5.78;;;21.50;75.50;;;;;;4997178;28;20042;-53
2022/06/20 02:03:58;;;;;;;12.10;5.82;;;21.50;77.10;;;;;;5003180;28;20491;-53
2022/06/20 02:06:25;;;;;;;13.15;5.53;;;21.40;77.80;;;;;;5011926;28;20118;-50
2022/06/20 02:08:54;;;;;;;14.82;7.07;;;21.40;79.10;;;;;;5015803;28;20033;-52
2022/06/20 02:11:38;;;;;;;12.85;5.85;;;21.30;79.80;;;;;;5016343;28;20049;-52
2022/06/20 02:14:12;;;;;;;10.38;5.97;;;21.30;80.50;;;;;;5016076;28;20045;-52
2022/06/20 02:16:43;;;;;;;11.13;6.60;;;21.20;80.90;;;;;;5016116;28;20045;-52
2022/06/20 02:19:14;;;;;;;17.77;7.18;;;21.20;81.50;;;;;;5014743;28;20046;-52
2022/06/20 02:21:44;;;;;;;12.43;6.70;;;21.20;84.50;;;;;;5015410;28;20046;-53
2022/06/20 02:24:18;;;;;;;13.40;6.38;;;21.10;85.80;;;;;;5016344;28;20769;-53
2022/06/20 02:26:50;;;;;;;18.77;7.70;;;21.00;87.30;;;;;;5014955;28;20037;-53
2022/06/20 02:29:22;;;;;;;14.52;7.20;;;21.00;88.60;;;;;;5015868;28;20053;-53
2022/06/20 02:31:54;;;;;;;19.10;7.07;;;21.10;90.10;;;;;;5016702;28;20041;-55
2022/06/20 02:34:27;;;;;;;17.08;7.47;;;21.00;90.30;;;;;;5016526;28;20045;-53
2022/06/20 02:36:55;;;;;;;20.45;7.07;;;21.00;90.20;;;;;;5016946;28;20050;-53
2022/06/20 02:39:23;;;;;;;15.20;6.28;;;21.00;90.30;;;;;;5016821;28;20083;-51
2022/06/20 02:41:55;;;;;;;15.65;7.07;;;21.10;90.10;;;;;;5016210;28;20042;-54
2022/06/20 02:44:24;;;;;;;11.05;6.85;;;21.10;90.30;;;;;;5016699;28;20048;-54
2022/06/20 02:46:52;;;;;;;15.45;6.93;;;21.10;90.40;;;;;;5016575;28;20091;-53
2022/06/20 02:49:22;;;;;;;11.90;6.63;;;21.10;90.50;;;;;;5016457;28;20569;-51
2022/06/20 02:51:51;;;;;;;10.32;6.80;;;21.10;90.40;;;;;;5015962;28;20046;-53
2022/06/20 02:54:22;;;;;;;13.75;6.38;;;21.00;91.00;;;;;;5016547;28;20045;-52
2022/06/20 02:56:58;;;;;;;14.27;5.70;;;21.00;91.10;;;;;;5016701;28;20037;-54
2022/06/20 02:59:29;;;;;;;15.55;6.32;;;20.90;90.40;;;;;;5016222;28;20120;-53
2022/06/20 03:02:06;;;;;;;23.20;8.50;;;21.00;90.10;;;;;;5000935;28;20061;-54
2022/06/20 03:04:35;;;;;;;12.15;6.80;;;21.00;90.20;;;;;;5013451;28;20841;-53
2022/06/20 03:07:09;;;;;;;8.90;5.97;;;20.90;90.40;;;;;;5013540;28;21041;-53
2022/06/20 03:09:40;;;;;;;13.55;5.85;;;21.00;90.20;;;;;;5014401;28;20152;-53
2022/06/20 03:12:08;;;;;;;14.68;6.10;;;20.90;89.80;;;;;;5016395;28;20049;-54
2022/06/20 03:14:44;;;;;;;19.95;7.07;;;20.90;90.20;;;;;;5015966;28;20587;-54
2022/06/20 03:17:14;;;;;;;16.50;7.68;;;20.90;90.60;;;;;;5016647;28;20037;-54
2022/06/20 03:19:45;;;;;;;16.23;6.90;;;20.80;91.30;;;;;;5016240;28;20049;-54
2022/06/20 03:22:16;;;;;;;15.50;7.65;;;20.70;90.90;;;;;;5016131;28;20463;-54
2022/06/20 03:24:45;;;;;;;9.70;7.03;;;20.70;91.70;;;;;;5016668;28;20060;-54
2022/06/20 03:27:19;;;;;;;13.48;7.18;;;20.60;91.30;;;;;;5015881;28;20044;-54
2022/06/20 03:29:54;;;;;;;13.63;7.03;;;20.60;92.10;;;;;;5016055;28;20053;-54
2022/06/20 03:32:23;;;;;;;17.98;6.97;;;20.60;91.00;;;;;;5015761;28;20046;-54
2022/06/20 03:34:51;;;;;;;19.27;7.43;;;20.60;91.40;;;;;;5016059;28;20050;-53
2022/06/20 03:37:18;;;;;;;22.23;8.05;;;20.60;91.60;;;;;;5015955;28;20049;-53
2022/06/20 03:39:47;;;;;;;19.92;7.28;;;20.60;92.30;;;;;;5018551;28;20053;-54
2022/06/20 03:42:15;;;;;;;10.68;6.80;;;20.60;92.00;;;;;;5017910;28;20042;-53
2022/06/20 03:44:53;;;;;;;18.42;6.97;;;20.60;92.30;;;;;;5020520;28;20045;-54
2022/06/20 03:47:27;;;;;;;9.30;6.30;;;20.60;92.20;;;;;;5019862;28;20037;-53
2022/06/20 03:50:09;;;;;;;15.45;7.80;;;20.60;92.20;;;;;;5019894;28;20124;-54
2022/06/20 03:53:17;;;;;;;15.60;7.53;;;20.60;93.00;;;;;;5017983;28;20045;-53
2022/06/20 03:56:28;;;;;;;15.18;8.13;;;20.60;93.40;;;;;;5020067;28;20049;-53
2022/06/20 03:59:07;;;;;;;21.25;7.72;;;20.60;94.00;;;;;;5019397;28;20118;-53
2022/06/20 04:01:45;;;;;;;15.43;9.02;;;20.60;93.50;;;;;;5020494;28;20057;-55
2022/06/20 04:04:22;;;;;;;14.93;7.50;;;20.70;93.00;;;;;;5019672;28;20045;-53
2022/06/20 04:07:01;;;;;;;15.40;6.78;;;20.80;92.80;;;;;;5018317;28;20041;-51
2022/06/20 04:12:46;;;;;;;16.52;7.78;;;21.00;93.40;;;;;;5020094;28;20052;-54
2022/06/20 04:15:52;;;;;;;16.83;7.07;;;21.00;93.60;;;;;;5012088;28;20057;-53
2022/06/20 04:18:49;;;;;;;15.43;7.15;;;20.90;94.70;;;;;;5012191;28;20890;-53
2022/06/20 04:21:21;;;;;;;11.43;7.88;;;20.90;95.40;;;;;;5019865;28;20670;-52
2022/06/20 04:24:04;;;;;;;19.70;8.25;;;21.00;96.10;;;;;;5019895;28;20060;-50
2022/06/20 04:26:53;;;;;;;16.42;9.57;;;21.00;97.60;;;;;;5018757;28;20107;-50
2022/06/20 04:29:28;;;;;;;15.13;7.70;;;21.00;98.30;;;;;;5019348;28;20128;-51
2022/06/20 04:32:25;;;;;;;9.65;6.38;;;21.00;98.60;;;;;;5019108;28;20111;-49
2022/06/20 04:35:15;;;;;;;13.38;6.93;;;21.10;98.50;;;;;;5019373;28;20507;-51
2022/06/20 04:38:01;;;;;;;20.45;8.95;;;21.20;98.00;;;;;;5019263;28;20049;-49
2022/06/20 04:40:43;;;;;;;13.90;8.05;;;21.20;98.10;;;;;;5019601;28;20796;-49
2022/06/20 04:43:17;;;;;;;19.30;8.00;;;21.30;97.80;;;;;;5018686;28;20470;-50
2022/06/20 04:46:11;;;;;;;15.88;8.75;;;21.40;97.20;;;;;;5019872;28;20045;-53
2022/06/20 04:48:38;;;;;;;19.35;7.50;;;21.50;97.00;;;;;;5016979;28;20045;-50
2022/06/20 04:51:12;;;;;;;21.05;8.05;;;21.60;95.20;;;;;;5017202;28;20052;-51
2022/06/20 04:53:42;;;;;;;16.13;7.13;;;21.70;95.90;;;;;;5018788;28;20049;-50
2022/06/20 04:56:13;;;;;;;17.38;6.65;;;21.80;94.60;;;;;;5019395;28;20045;-50
2022/06/20 04:58:49;;;;;;;15.93;8.07;;;21.90;95.10;;;;;;5018510;28;20038;-52
2022/06/20 05:01:17;;;;;;;19.52;7.32;;;22.00;95.30;;;;;;5019224;28;20050;-52
2022/06/20 05:03:48;;;;;;;22.65;6.40;;;22.10;95.50;;;;;;5019064;28;20099;-52
2022/06/20 05:06:21;;;;;;;17.00;7.38;;;22.10;96.10;;;;;;5018610;28;20130;-49
2022/06/20 05:08:55;;;;;;;11.40;7.00;;;22.20;95.20;;;;;;5015097;28;20562;-51
2022/06/20 05:11:31;;;;;;;14.43;6.93;;;22.30;95.70;;;;;;5017188;28;20054;-48
2022/06/20 05:14:23;;;;;;;16.38;6.90;;;22.30;96.90;;;;;;5018951;28;20055;-48
2022/06/20 05:16:58;;;;;;;17.05;6.05;;;22.40;96.00;;;;;;5018386;28;20129;-52
2022/06/20 05:19:42;;;;;;;16.17;6.60;;;22.50;94.40;;;;;;5018428;28;20048;-53
2022/06/20 05:22:15;;;;;;;21.17;6.47;;;22.60;93.70;;;;;;5017063;28;20176;-53
2022/06/20 05:24:44;;;;;;;11.38;6.15;;;22.70;93.00;;;;;;5018477;28;20087;-53
2022/06/20 05:27:18;;;;;;;11.70;5.88;;;22.70;92.70;;;;;;5018039;28;20107;-53
2022/06/20 05:29:49;;;;;;;16.15;5.72;;;22.80;92.10;;;;;;5017009;28;20124;-54
2022/06/20 05:32:24;;;;;;;14.25;6.68;;;22.80;91.40;;;;;;5018181;28;20677;-49
2022/06/20 05:34:58;;;;;;;12.85;5.90;;;22.90;92.00;;;;;;5018132;28;20427;-48
2022/06/20 05:37:50;;;;;;;11.93;5.85;;;22.90;89.90;;;;;;5018420;28;20052;-48
2022/06/20 05:40:36;;;;;;;14.07;6.10;;;23.00;88.70;;;;;;5018382;28;20414;-50
2022/06/20 05:43:05;;;;;;;17.15;7.75;;;23.00;86.90;;;;;;5017771;28;20859;-48
2022/06/20 05:45:31;;;;;;;13.60;6.50;;;23.10;84.50;;;;;;5018771;28;20072;-48
2022/06/20 05:48:02;;;;;;;12.90;6.10;;;23.10;85.40;;;;;;5017921;28;20053;-49
2022/06/20 05:50:48;;;;;;;18.23;5.75;;;23.10;84.60;;;;;;5018607;28;20060;-50
2022/06/20 05:53:36;;;;;;;16.10;6.68;;;23.10;86.00;;;;;;5017070;28;20760;-47
2022/06/20 05:56:12;;;;;;;14.02;5.63;;;23.10;84.50;;;;;;5018351;28;20080;-48
2022/06/20 05:58:43;;;;;;;12.75;5.18;;;23.20;84.10;;;;;;5017930;28;20056;-59
2022/06/20 06:01:15;;;;;;;10.77;6.07;;;23.20;84.00;;;;;;5016421;28;20045;-55
2022/06/20 06:04:04;;;;;;;15.65;5.85;;;23.20;85.60;;;;;;5017939;28;20095;-56
2022/06/20 06:06:49;;;;;;;13.30;6.03;;;23.30;85.50;;;;;;5017745;28;20049;-53
2022/06/20 06:09:26;;;;;;;10.73;5.68;;;23.30;88.60;;;;;;5013244;28;20033;-55
2022/06/20 06:11:57;;;;;;;10.85;6.10;;;23.30;89.40;;;;;;5017352;28;20038;-55
2022/06/20 06:14:39;;;;;;;10.55;5.93;;;23.40;88.80;;;;;;5017809;28;20056;-53
2022/06/20 06:17:15;;;;;;;22.08;6.50;;;23.40;89.00;;;;;;5016930;28;20099;-58
2022/06/20 06:20:18;;;;;;;15.05;5.95;;;23.50;85.70;;;;;;5017453;28;20049;-56
2022/06/20 06:22:47;;;;;;;11.55;6.20;;;23.50;85.10;;;;;;5017301;28;20037;-54
2022/06/20 06:25:36;;;;;;;8.13;5.68;;;23.60;85.60;;;;;;5017578;28;20080;-54
2022/06/20 06:28:15;;;;;;;13.77;5.57;;;23.70;85.90;;;;;;5017019;28;20124;-54
2022/06/20 06:31:06;;;;;;;16.50;5.90;;;23.80;87.30;;;;;;5016172;28;20107;-56
2022/06/20 06:33:46;;;;;;;16.83;5.63;;;24.00;86.70;;;;;;5017127;28;20073;-55
2022/06/20 06:36:21;;;;;;;20.13;5.82;;;24.10;83.00;;;;;;5017351;28;20042;-56
2022/06/20 06:39:15;;;;;;;11.30;5.90;;;24.20;83.20;;;;;;5016575;28;20042;-56
2022/06/20 06:41:46;;;;;;;21.38;6.32;;;24.30;83.20;;;;;;5017216;28;20041;-60
2022/06/20 06:44:21;;;;;;;13.98;5.95;;;24.40;81.10;;;;;;5015681;28;20045;-63
2022/06/20 06:46:51;;;;;;;22.45;6.80;;;24.40;82.70;;;;;;5017508;28;20081;-64
2022/06/20 06:49:21;;;;;;;12.23;5.88;;;24.50;81.30;;;;;;5016959;28;20145;-63
2022/06/20 06:52:12;;;;;;;15.98;5.88;;;24.60;81.20;;;;;;5017059;28;20775;-63
2022/06/20 06:54:42;;;;;;;15.18;6.55;;;24.70;80.90;;;;;;4996647;28;20045;-63
2022/06/20 06:57:30;;;;;;;17.05;6.55;;;24.80;79.60;;;;;;4995961;28;20104;-65
2022/06/20 07:00:02;;;;;;;12.18;5.70;;;24.80;78.50;;;;;;4996649;28;20056;-65
2022/06/20 07:02:36;;;;;;;14.57;7.00;;;24.90;77.40;;;;;;4997561;28;20040;-64
2022/06/20 07:05:14;;;;;;;16.67;6.47;;;25.00;77.10;;;;;;4995421;28;20162;-67
2022/06/20 07:07:46;;;;;;;11.07;5.57;;;25.00;77.30;;;;;;5016716;28;20038;-64
2022/06/20 07:10:32;;;;;;;14.20;6.25;;;25.10;76.60;;;;;;5011941;28;20420;-66
2022/06/20 07:13:12;;;;;;;12.85;5.45;;;25.10;72.10;;;;;;4997100;28;20046;-65
2022/06/20 07:15:41;;;;;;;12.98;5.88;;;25.10;71.50;;;;;;4996404;28;20045;-66
2022/06/20 07:18:25;;;;;;;13.80;5.82;;;25.20;70.00;;;;;;5010991;28;20046;-65
2022/06/20 07:20:52;;;;;;;11.50;5.15;;;25.20;70.80;;;;;;5016221;28;20051;-64
2022/06/20 07:23:19;;;;;;;21.00;5.78;;;25.20;71.10;;;;;;5016640;28;20729;-63
2022/06/20 07:25:50;;;;;;;12.65;4.90;;;25.30;70.30;;;;;;5016761;28;20057;-62
2022/06/20 07:28:54;;;;;;;16.35;5.80;;;25.30;66.90;;;;;;5016056;28;20809;-65
2022/06/20 07:31:27;;;;;;;13.95;5.68;;;25.40;68.80;;;;;;5016269;28;20065;-64
2022/06/20 07:34:19;;;;;;;10.60;5.65;;;25.50;68.30;;;;;;5016137;28;20045;-64
2022/06/20 07:36:55;;;;;;;13.23;5.30;;;25.60;64.90;;;;;;5015192;28;20049;-65
2022/06/20 07:39:32;;;;;;;16.15;5.70;;;25.60;64.80;;;;;;5016072;28;20041;-63
2022/06/20 07:42:06;;;;;;;14.82;5.25;;;25.70;64.20;;;;;;5014770;28;20107;-65
2022/06/20 07:44:38;;;;;;;13.18;5.40;;;25.70;63.70;;;;;;5015902;28;20138;-63
2022/06/20 07:47:13;;;;;;;25.90;6.68;;;25.60;64.80;;;;;;5016496;28;20132;-65
2022/06/20 07:49:53;;;;;;;15.45;6.32;;;25.60;64.50;;;;;;5015839;28;20053;-63
2022/06/20 07:52:42;;;;;;;23.52;7.00;;;25.60;65.80;;;;;;5016023;28;20053;-64
2022/06/20 07:55:14;;;;;;;12.18;6.05;;;25.60;66.80;;;;;;5002579;28;20049;-67
2022/06/20 07:57:54;;;;;;;15.63;6.55;;;25.70;66.40;;;;;;5016441;28;20052;-64
2022/06/20 08:00:28;;;;;;;15.00;5.80;;;25.80;66.00;;;;;;5014671;28;20688;-65
2022/06/20 08:03:21;;;;;;;14.27;6.53;;;25.90;65.00;;;;;;5016264;28;20049;-64
2022/06/20 08:05:53;;;;;;;15.80;6.05;;;26.00;66.60;;;;;;5015358;28;20045;-63
2022/06/20 08:08:34;;;;;;;22.35;6.35;;;26.10;67.00;;;;;;5016091;28;20045;-64
2022/06/20 08:11:08;;;;;;;13.80;6.35;;;26.20;65.80;;;;;;5014701;28;20204;-64
2022/06/20 08:13:45;;;;;;;12.55;6.28;;;26.30;65.40;;;;;;4997627;28;20050;-65
2022/06/20 08:16:28;;;;;;;14.57;6.47;;;26.40;65.60;;;;;;4994813;28;20042;-64
2022/06/20 08:18:55;;;;;;;26.00;7.50;;;26.50;66.10;;;;;;4996446;28;20038;-66
2022/06/20 08:21:46;;;;;;;13.82;6.70;;;26.60;65.20;;;;;;4996289;28;20100;-64
2022/06/20 08:24:22;;;;;;;18.02;8.02;;;26.70;65.10;;;;;;4995427;28;20037;-65
2022/06/20 08:26:55;;;;;;;17.40;7.40;;;26.90;64.10;;;;;;5004690;28;20036;-64
2022/06/20 08:29:46;;;;;;;14.70;6.63;;;27.10;62.50;;;;;;5017844;28;20099;-63
2022/06/20 08:32:27;;;;;;;17.67;7.40;;;27.30;61.20;;;;;;5019786;28;20046;-63
2022/06/20 08:35:14;;;;;;;15.75;6.57;;;27.50;61.30;;;;;;5018544;28;20050;-65
2022/06/20 08:37:56;;;;;;;14.43;6.88;;;27.50;62.20;;;;;;5018379;28;20491;-65
2022/06/20 08:40:32;;;;;;;14.55;6.25;;;27.70;59.80;;;;;;5019590;28;20057;-64
2022/06/20 08:43:46;;;;;;;13.95;6.10;;;27.70;61.20;;;;;;5018608;28;21019;-66
2022/06/20 08:46:34;;;;;;;23.05;6.88;;;27.90;60.50;;;;;;4957657;28;20162;-65
2022/06/20 08:49:16;;;;;;;25.38;7.30;;;28.10;60.60;;;;;;4957269;28;20054;-65
2022/06/20 08:52:07;;;;;;;21.02;7.40;;;28.30;59.20;;;;;;4988350;28;20058;-66
2022/06/20 08:54:58;;;;;;;15.15;6.80;;;28.30;58.80;;;;;;5011102;28;20041;-65
2022/06/20 08:57:35;;;;;;;14.68;6.68;;;28.20;58.60;;;;;;5019500;28;20614;-65
2022/06/20 09:00:32;;;;;;;18.83;6.93;;;28.20;57.60;;;;;;5018731;28;20526;-65
2022/06/20 09:03:17;;;;;;;14.60;6.43;;;28.30;57.30;;;;;;5019146;28;20048;-64
2022/06/20 09:05:50;;;;;;;17.08;6.65;;;28.50;56.40;;;;;;5005984;28;20050;-65
2022/06/20 09:08:47;;;;;;;16.70;6.85;;;28.60;57.10;;;;;;5029306;28;20045;-66
2022/06/20 09:11:43;;;;;;;12.27;6.28;;;28.80;57.40;;;;;;5011495;28;20491;-64
2022/06/20 09:14:48;;;;;;;15.73;6.85;;;29.00;56.10;;;;;;5014009;28;20053;-64
2022/06/20 09:17:59;;;;;;;12.77;6.95;;;29.20;55.80;;;;;;5016262;28;20040;-64
2022/06/20 09:21:15;;;;;;;28.25;7.53;;;29.40;54.40;;;;;;5014582;28;20048;-65
2022/06/20 09:24:00;;;;;;;19.52;7.40;;;29.50;54.10;;;;;;4972273;28;20091;-64
2022/06/20 09:26:40;;;;;;;15.55;6.55;;;29.50;53.70;;;;;;5015413;28;20539;-65
2022/06/20 09:29:32;;;;;;;18.60;6.30;;;29.60;55.30;;;;;;5015965;28;20619;-66
2022/06/20 09:32:20;;;;;;;12.57;5.85;;;29.80;55.90;;;;;;5016064;28;20059;-64
2022/06/20 09:35:13;;;;;;;20.67;5.03;;;30.00;53.30;;;;;;5016008;28;20056;-65
2022/06/20 09:37:53;;;;;;;14.75;6.20;;;30.30;52.80;;;;;;5014978;28;20176;-64
2022/06/20 09:40:25;;;;;;;19.27;7.10;;;30.20;52.30;;;;;;5016202;28;20045;-65
2022/06/20 09:43:09;;;;;;;21.92;6.30;;;30.30;52.80;;;;;;5034566;28;20041;-65
2022/06/20 09:45:45;;;;;;;16.65;7.03;;;30.20;51.40;;;;;;5036040;28;20124;-66
2022/06/20 09:48:26;;;;;;;22.17;6.20;;;30.30;51.80;;;;;;5021278;28;20061;-65
2022/06/20 09:51:20;;;;;;;23.15;7.00;;;30.50;51.10;;;;;;5016212;28;20639;-65
2022/06/20 09:54:09;;;;;;;13.95;5.75;;;30.70;52.30;;;;;;5015603;28;20076;-66
2022/06/20 09:56:42;;;;;;;14.52;5.28;;;31.00;52.00;;;;;;5016496;28;20049;-65
2022/06/20 09:59:46;;;;;;;13.82;6.65;;;31.30;51.60;;;;;;5015277;28;20095;-66
2022/06/20 10:02:19;;;;;;;16.38;6.32;;;31.40;50.30;;;;;;5016480;28;20111;-66
2022/06/20 10:04:59;;;;;;;14.00;6.20;;;31.40;49.00;;;;;;5016168;28;20046;-66
2022/06/20 10:07:33;;;;;;;14.60;6.10;;;31.20;49.40;;;;;;5015503;28;20040;-66
2022/06/20 10:10:10;;;;;;;11.80;5.68;;;31.20;50.90;;;;;;5035285;28;20107;-66
2022/06/20 10:12:40;;;;;;;17.10;6.53;;;31.30;48.70;;;;;;5024152;28;20048;-66
2022/06/20 10:15:42;;;;;;;16.83;5.88;;;31.30;49.50;;;;;;5000208;28;20077;-65
2022/06/20 10:18:47;;;;;;;17.92;6.68;;;31.30;47.70;;;;;;4967696;28;20550;-64
2022/06/20 10:21:24;;;;;;;17.98;6.63;;;31.30;48.50;;;;;;5015459;28;20048;-65
2022/06/20 10:24:03;;;;;;;21.80;7.75;;;31.20;48.90;;;;;;5014023;28;20449;-66
2022/06/20 10:26:50;;;;;;;21.38;7.30;;;31.20;49.40;;;;;;5014998;28;20060;-67
2022/06/20 10:29:23;;;;;;;14.38;6.53;;;31.10;49.40;;;;;;5015517;28;20831;-66
2022/06/20 10:32:16;;;;;;;12.05;6.40;;;31.00;48.60;;;;;;5014352;28;20527;-65
2022/06/20 10:34:49;;;;;;;12.23;6.55;;;30.90;49.10;;;;;;5015664;28;20037;-65
2022/06/20 10:37:23;;;;;;;13.35;7.05;;;30.80;49.30;;;;;;5015307;28;20046;-66
2022/06/20 10:40:13;;;;;;;15.60;6.55;;;30.80;48.60;;;;;;5014917;28;20042;-67
2022/06/20 10:43:01;;;;;;;20.50;6.95;;;30.80;49.00;;;;;;5007318;28;20064;-66
2022/06/20 10:45:57;;;;;;;15.30;7.35;;;30.60;49.40;;;;;;5015633;28;20052;-65
2022/06/20 10:48:41;;;;;;;17.33;6.68;;;30.50;50.40;;;;;;5014425;28;20049;-67
2022/06/20 10:51:35;;;;;;;15.00;6.28;;;30.40;49.10;;;;;;5015132;28;20515;-66
2022/06/20 10:54:32;;;;;;;18.85;6.00;;;30.30;49.60;;;;;;5014075;28;20041;-64
2022/06/20 10:57:19;;;;;;;18.10;6.45;;;30.10;50.50;;;;;;5014341;28;20428;-65
2022/06/20 11:00:04;;;;;;;22.20;8.05;;;30.00;51.00;;;;;;4994964;28;20053;-66
2022/06/20 11:02:51;;;;;;;16.50;7.03;;;30.00;51.40;;;;;;5000849;28;20045;-65
2022/06/20 11:05:46;;;;;;;16.03;6.50;;;30.00;50.40;;;;;;5014203;28;20049;-65
2022/06/20 11:08:26;;;;;;;14.07;6.85;;;30.00;49.70;;;;;;5015002;28;20037;-66
2022/06/20 11:11:07;;;;;;;16.75;5.97;;;30.00;50.00;;;;;;4994898;28;20083;-66
2022/06/20 11:14:12;;;;;;;13.10;6.00;;;29.90;50.20;;;;;;5000390;28;20045;-64
2022/06/20 11:16:45;;;;;;;18.05;6.50;;;29.90;51.70;;;;;;5012222;28;20052;-66
2022/06/20 11:19:23;;;;;;;11.43;6.03;;;30.00;52.30;;;;;;5013885;28;20045;-64
2022/06/20 11:22:20;;;;;;;17.98;6.97;;;30.20;51.90;;;;;;5014392;28;20041;-64
2022/06/20 11:24:59;;;;;;;17.40;6.15;;;30.30;49.50;;;;;;5015173;28;20586;-64
2022/06/20 11:27:41;;;;;;;18.05;6.50;;;30.50;49.70;;;;;;5013767;28;20108;-63
2022/06/20 11:31:10;;;;;;;15.63;6.05;;;30.60;51.10;;;;;;5014471;28;20055;-65
2022/06/20 11:34:00;;;;;;;12.97;6.30;;;31.00;49.60;;;;;;4898827;28;20884;-63
2022/06/20 11:36:40;;;;;;;19.90;5.47;;;31.10;48.60;;;;;;5014578;28;20570;-66
2022/06/20 11:39:38;;;;;;;21.95;6.22;;;31.00;47.90;;;;;;5013985;28;20041;-64
2022/06/20 11:42:23;;;;;;;22.45;6.50;;;30.90;47.20;;;;;;5014165;28;20057;-66
2022/06/20 11:45:04;;;;;;;17.33;5.97;;;30.80;48.10;;;;;;5014044;28;20045;-65
2022/06/20 11:47:49;;;;;;;13.98;5.30;;;30.90;48.50;;;;;;5014334;28;20051;-64
2022/06/20 11:50:40;;;;;;;13.02;5.95;;;31.10;47.90;;;;;;5013642;28;20667;-65
2022/06/20 11:53:20;;;;;;;16.58;5.85;;;31.30;47.50;;;;;;4983495;28;20144;-64
2022/06/20 11:55:52;;;;;;;21.60;6.43;;;31.40;46.40;;;;;;5003579;28;20037;-64
2022/06/20 11:58:54;;;;;;;13.07;5.72;;;31.40;47.20;;;;;;5011934;28;20069;-65
2022/06/20 12:01:28;;;;;;;12.40;5.45;;;31.50;47.30;;;;;;5017039;28;20038;-64
2022/06/20 12:04:24;;;;;;;21.35;5.55;;;31.60;46.90;;;;;;5017973;28;20141;-64
2022/06/20 12:06:55;;;;;;;18.63;5.97;;;31.70;46.10;;;;;;5020574;28;20057;-65
2022/06/20 12:09:46;;;;;;;12.18;5.30;;;31.70;46.00;;;;;;5027038;28;20161;-67
2022/06/20 12:12:26;;;;;;;15.15;5.90;;;31.70;45.60;;;;;;5016889;28;20072;-66
2022/06/20 12:15:22;;;;;;;12.00;4.72;;;31.60;46.20;;;;;;5016324;28;20079;-67
2022/06/20 12:18:20;;;;;;;15.15;5.20;;;31.60;45.00;;;;;;5000873;28;20053;-65
2022/06/20 12:23:43;;;;;;;12.05;6.32;;;31.60;44.20;;;;;;5017210;28;20094;-65
2022/06/20 12:26:23;;;;;;;19.35;6.22;;;31.50;44.90;;;;;;5016431;28;20041;-68
2022/06/20 12:28:52;;;;;;;14.88;6.18;;;31.50;45.80;;;;;;5016805;28;20054;-64
2022/06/20 12:31:22;;;;;;;13.15;5.18;;;31.60;44.80;;;;;;5018082;28;20053;-64
2022/06/20 12:34:18;;;;;;;19.77;5.80;;;31.60;45.30;;;;;;5017197;28;20049;-64
2022/06/20 12:36:54;;;;;;;13.20;5.13;;;31.70;44.80;;;;;;4994133;28;20543;-63
2022/06/20 12:39:37;;;;;;;19.40;5.53;;;31.90;44.80;;;;;;5015090;28;20049;-64
2022/06/20 12:42:12;;;;;;;15.05;5.30;;;32.10;44.70;;;;;;5016001;28;20594;-64
2022/06/20 12:45:02;;;;;;;14.27;5.82;;;32.20;44.20;;;;;;5017253;28;20049;-64
2022/06/20 12:47:32;;;;;;;22.85;6.60;;;32.30;43.70;;;;;;5009179;28;20061;-64
2022/06/20 12:50:08;;;;;;;11.30;4.93;;;32.20;42.80;;;;;;5015369;28;20050;-63
2022/06/20 12:52:52;;;;;;;16.13;5.68;;;32.30;45.20;;;;;;5016826;28;20915;-64
2022/06/20 12:55:46;;;;;;;15.15;5.63;;;32.40;45.70;;;;;;5015947;28;20049;-64
2022/06/20 12:58:32;;;;;;;14.82;5.22;;;32.70;43.40;;;;;;5016042;28;20176;-64
2022/06/20 13:01:16;;;;;;;26.50;7.53;;;32.60;43.80;;;;;;5017095;28;20052;-63
2022/06/20 13:03:56;;;;;;;15.38;5.45;;;32.40;42.80;;;;;;5017268;28;20459;-64
2022/06/20 13:06:52;;;;;;;12.60;5.57;;;32.20;44.10;;;;;;5016665;28;20980;-64
2022/06/20 13:09:45;;;;;;;20.45;5.72;;;32.30;44.70;;;;;;5016837;28;20433;-64
2022/06/20 13:12:26;;;;;;;17.05;5.20;;;32.20;42.40;;;;;;5016237;28;20060;-64
2022/06/20 13:15:26;;;;;;;21.83;6.10;;;32.20;43.10;;;;;;5016243;28;20606;-64
2022/06/20 13:18:30;;;;;;;14.38;5.03;;;32.20;44.20;;;;;;5013154;28;20666;-64
2022/06/20 13:20:57;;;;;;;13.32;5.90;;;32.20;43.90;;;;;;5015252;28;20167;-64
2022/06/20 13:23:29;;;;;;;13.07;5.93;;;32.30;43.00;;;;;;5016303;28;20668;-64
2022/06/20 13:26:19;;;;;;;13.95;5.20;;;32.40;43.40;;;;;;5017051;28;20041;-64
2022/06/20 13:29:12;;;;;;;11.07;5.18;;;32.50;43.90;;;;;;4995586;28;20045;-64
2022/06/20 13:31:48;;;;;;;9.90;4.88;;;32.60;42.20;;;;;;4995536;28;20046;-64
2022/06/20 13:34:20;;;;;;;20.10;5.10;;;32.60;41.70;;;;;;4996373;28;20368;-64
2022/06/20 13:37:22;;;;;;;15.80;5.13;;;32.60;41.10;;;;;;5004339;28;20068;-64
2022/06/20 13:40:11;;;;;;;11.15;4.57;;;32.60;40.20;;;;;;5015695;28;20041;-65
2022/06/20 13:43:03;;;;;;;18.95;5.32;;;32.60;40.80;;;;;;5016231;28;20046;-64
2022/06/20 13:45:42;;;;;;;17.50;4.93;;;32.50;40.00;;;;;;5016073;28;20049;-64
2022/06/20 13:48:33;;;;;;;12.10;4.20;;;32.40;41.10;;;;;;5014062;28;20049;-64
2022/06/20 13:51:15;;;;;;;15.25;4.22;;;32.40;40.70;;;;;;5016996;28;20060;-63
2022/06/20 13:54:18;;;;;;;19.90;4.57;;;32.30;40.50;;;;;;5016845;28;20702;-64